Ana Sayfa
METAR-TAF:

METAR-TAF

Havaalanları :

Newport State Airport

Newport, Rhode Island, Amerika Birleşik Devletleri

Enlem: 41-31-48N, Boylam: 071-17-01W, yükseklik: 52 m

Güncel hava durumu gözlemi

Rapor saat 07:53 UTC de 24 dakika önce yapıldı.
Rüzgar kuzeydan 13 kt ve 20 kt'a kadar ani rüzgarlar
Sıcaklık 6°C
Nem 87%
Basınç 1012 hPa
Görüş mesafesi: 4.8 km
500 ft yükseklikte çok bulutlu
Pus

METAR: KUUU 300753Z AUTO 36013G20KT 3SM BR OVC005 06/04 A2988 RMK AO2 PK WND 01026/0723 SLP119 T00560039

Saat: 04:17 (08:17 UTC)


TAF: eksik

4.000'den fazla havaalanı için hava durumu gözlemleri ve tahminleri (METAR ve TAF raporları).

Kullanılabilir istasyonlar harita üzerinde sarı ve kırmızı noktalarla gösterilir.

İstasyonun adını görmek için fareyi noktanın üzerinde gezdirin.

Sonrasında hava gözlem ve tahminlerini görmek için tıklayın.

Haritayı değiştirmek için: yaklaştırmak için siyah artı işaretli yeşil düğmeye ve uzaklaştırmak için de eksi işaretli düğmeye hızla tıklayın; bitişik haritalar için yeşil okları kullanın.


METAR-TAF: